Terminal Aerodrome Forecast
Issued by NWS

Home | Current Version | Previous Version | Text Only | Print | Product List | Glossary On
Versions: 1 2 3 4 5 6 7 8 9 10 11 12 13 14 15 16
000
FTUS46 KEKA 181720
TAFUKI
TAF
KUKI 181720Z 1818/1918 16008KT P6SM VCSH BKN035 BKN050
      TEMPO 1818/1820 16008G18KT 4SM -RA BR BKN045
     FM182000 15008KT P6SM VCSH SCT050
     FM190300 VRB03KT P6SM SCT100
     FM190800 00000KT P6SM FEW250=

USA.gov is the U.S. government's official web portal to all federal, state and local government web resources and services.